sensor_id;sensor_type;location;lat;lon;timestamp;pressure;altitude;pressure_sealevel;temperature;humidity
9423;BME280;4750;49.506;10.400;2022-09-03T00:01:24;97789.19;;;14.78;57.89
9423;BME280;4750;49.506;10.400;2022-09-03T00:04:23;97760.06;;;14.58;57.92
9423;BME280;4750;49.506;10.400;2022-09-03T00:07:19;97763.66;;;14.59;57.79
9423;BME280;4750;49.506;10.400;2022-09-03T00:10:15;97775.22;;;14.80;57.84
9423;BME280;4750;49.506;10.400;2022-09-03T00:13:04;97767.94;;;14.77;57.93
9423;BME280;4750;49.506;10.400;2022-09-03T00:15:50;97769.13;;;14.74;57.89
9423;BME280;4750;49.506;10.400;2022-09-03T00:19:00;97759.09;;;14.63;58.02
9423;BME280;4750;49.506;10.400;2022-09-03T00:21:58;97787.41;;;14.73;57.95
9423;BME280;4750;49.506;10.400;2022-09-03T00:24:46;97770.59;;;14.48;58.12
9423;BME280;4750;49.506;10.400;2022-09-03T00:27:36;97765.22;;;14.42;58.52
9423;BME280;4750;49.506;10.400;2022-09-03T00:30:22;97772.50;;;14.45;58.63
9423;BME280;4750;49.506;10.400;2022-09-03T00:33:21;97768.94;;;14.45;58.47
9423;BME280;4750;49.506;10.400;2022-09-03T00:38:51;97761.53;;;14.22;58.71
9423;BME280;4750;49.506;10.400;2022-09-03T00:41:39;97782.09;;;14.33;58.90
9423;BME280;4750;49.506;10.400;2022-09-03T00:50:52;97793.31;;;14.40;59.09
9423;BME280;4750;49.506;10.400;2022-09-03T00:57:26;97792.97;;;14.36;59.00
9423;BME280;4750;49.506;10.400;2022-09-03T01:00:18;97775.22;;;14.26;59.02
9423;BME280;4750;49.506;10.400;2022-09-03T01:03:11;97794.44;;;14.37;59.22
9423;BME280;4750;49.506;10.400;2022-09-03T01:06:13;97795.88;;;14.28;59.46
9423;BME280;4750;49.506;10.400;2022-09-03T01:15:19;97792.84;;;14.17;59.86
9423;BME280;4750;49.506;10.400;2022-09-03T01:18:30;97797.34;;;13.85;60.44
9423;BME280;4750;49.506;10.400;2022-09-03T01:27:24;97779.44;;;13.37;61.96
9423;BME280;4750;49.506;10.400;2022-09-03T01:30:14;97801.63;;;13.33;62.43
9423;BME280;4750;49.506;10.400;2022-09-03T01:33:27;97784.16;;;13.09;62.82
9423;BME280;4750;49.506;10.400;2022-09-03T01:36:28;97769.69;;;12.88;63.30
9423;BME280;4750;49.506;10.400;2022-09-03T01:39:43;97798.47;;;13.04;63.79
9423;BME280;4750;49.506;10.400;2022-09-03T01:45:38;97792.56;;;13.42;63.72
9423;BME280;4750;49.506;10.400;2022-09-03T01:48:40;97795.19;;;13.40;63.29
9423;BME280;4750;49.506;10.400;2022-09-03T01:51:30;97784.56;;;13.06;63.02
9423;BME280;4750;49.506;10.400;2022-09-03T02:00:18;97787.13;;;12.69;64.06
9423;BME280;4750;49.506;10.400;2022-09-03T02:03:06;97762.22;;;12.57;64.39
9423;BME280;4750;49.506;10.400;2022-09-03T02:05:53;97792.41;;;12.65;64.89
9423;BME280;4750;49.506;10.400;2022-09-03T02:08:38;97754.25;;;12.38;65.36
9423;BME280;4750;49.506;10.400;2022-09-03T02:11:23;97760.69;;;12.31;65.36
9423;BME280;4750;49.506;10.400;2022-09-03T02:14:06;97785.63;;;12.35;65.75
9423;BME280;4750;49.506;10.400;2022-09-03T02:16:51;97738.66;;;12.12;65.84
9423;BME280;4750;49.506;10.400;2022-09-03T02:19:37;97763.00;;;12.17;66.21
9423;BME280;4750;49.506;10.400;2022-09-03T02:22:21;97746.56;;;12.06;66.20
9423;BME280;4750;49.506;10.400;2022-09-03T02:25:06;97777.19;;;12.35;66.63
9423;BME280;4750;49.506;10.400;2022-09-03T02:27:51;97759.84;;;12.13;66.56
9423;BME280;4750;49.506;10.400;2022-09-03T02:30:35;97776.72;;;12.13;66.88
9423;BME280;4750;49.506;10.400;2022-09-03T02:33:19;97762.88;;;12.08;67.16
9423;BME280;4750;49.506;10.400;2022-09-03T02:36:06;97762.91;;;12.00;67.34
9423;BME280;4750;49.506;10.400;2022-09-03T02:38:50;97751.13;;;11.94;67.38
9423;BME280;4750;49.506;10.400;2022-09-03T02:41:35;97769.28;;;12.00;67.71
9423;BME280;4750;49.506;10.400;2022-09-03T02:44:30;97769.06;;;12.14;67.38
9423;BME280;4750;49.506;10.400;2022-09-03T02:47:15;97763.84;;;12.02;67.48
9423;BME280;4750;49.506;10.400;2022-09-03T02:50:00;97758.38;;;12.04;67.78
9423;BME280;4750;49.506;10.400;2022-09-03T02:52:44;97771.09;;;12.13;68.08
9423;BME280;4750;49.506;10.400;2022-09-03T02:55:29;97743.41;;;12.02;68.02
9423;BME280;4750;49.506;10.400;2022-09-03T02:58:12;97748.50;;;11.96;67.65
9423;BME280;4750;49.506;10.400;2022-09-03T03:00:57;97778.44;;;12.09;67.89
9423;BME280;4750;49.506;10.400;2022-09-03T03:03:41;97768.50;;;12.08;67.95
9423;BME280;4750;49.506;10.400;2022-09-03T03:06:25;97763.28;;;11.96;67.94
9423;BME280;4750;49.506;10.400;2022-09-03T03:09:10;97747.75;;;11.95;67.88
9423;BME280;4750;49.506;10.400;2022-09-03T03:11:53;97768.28;;;12.13;67.84
9423;BME280;4750;49.506;10.400;2022-09-03T03:14:38;97763.34;;;12.29;67.53
9423;BME280;4750;49.506;10.400;2022-09-03T03:17:22;97769.09;;;12.39;67.01
9423;BME280;4750;49.506;10.400;2022-09-03T03:20:06;97755.63;;;12.30;66.96
9423;BME280;4750;49.506;10.400;2022-09-03T03:22:51;97761.41;;;12.39;66.53
9423;BME280;4750;49.506;10.400;2022-09-03T03:25:37;97768.59;;;12.58;66.52
9423;BME280;4750;49.506;10.400;2022-09-03T03:28:21;97748.28;;;12.34;66.15
9423;BME280;4750;49.506;10.400;2022-09-03T03:31:06;97775.38;;;12.55;66.44
9423;BME280;4750;49.506;10.400;2022-09-03T03:33:55;97774.44;;;12.52;66.21
9423;BME280;4750;49.506;10.400;2022-09-03T03:36:39;97748.13;;;12.32;65.97
9423;BME280;4750;49.506;10.400;2022-09-03T03:39:23;97712.38;;;12.17;65.61
9423;BME280;4750;49.506;10.400;2022-09-03T03:42:07;97759.91;;;12.38;65.73
9423;BME280;4750;49.506;10.400;2022-09-03T03:44:51;97751.66;;;12.33;65.89
9423;BME280;4750;49.506;10.400;2022-09-03T03:47:35;97791.00;;;12.48;65.89
9423;BME280;4750;49.506;10.400;2022-09-03T03:50:19;97799.22;;;12.54;66.08
9423;BME280;4750;49.506;10.400;2022-09-03T03:53:03;97750.06;;;12.22;66.26
9423;BME280;4750;49.506;10.400;2022-09-03T03:55:58;97728.16;;;12.13;65.95
9423;BME280;4750;49.506;10.400;2022-09-03T03:58:43;97783.41;;;12.33;65.84
9423;BME280;4750;49.506;10.400;2022-09-03T04:01:28;97772.88;;;12.34;66.29
9423;BME280;4750;49.506;10.400;2022-09-03T04:04:12;97790.59;;;12.52;66.37
9423;BME280;4750;49.506;10.400;2022-09-03T04:06:57;97769.56;;;12.53;66.05
9423;BME280;4750;49.506;10.400;2022-09-03T04:09:41;97781.16;;;12.57;65.97
9423;BME280;4750;49.506;10.400;2022-09-03T04:12:26;97763.91;;;12.61;65.54
9423;BME280;4750;49.506;10.400;2022-09-03T04:15:10;97767.09;;;12.57;65.35
9423;BME280;4750;49.506;10.400;2022-09-03T04:17:54;97761.31;;;12.55;65.65
9423;BME280;4750;49.506;10.400;2022-09-03T04:20:38;97749.69;;;12.51;65.52
9423;BME280;4750;49.506;10.400;2022-09-03T04:23:23;97759.81;;;12.54;65.38
9423;BME280;4750;49.506;10.400;2022-09-03T04:26:10;97781.16;;;12.57;65.38
9423;BME280;4750;49.506;10.400;2022-09-03T04:28:55;97773.72;;;12.52;65.47
9423;BME280;4750;49.506;10.400;2022-09-03T04:31:39;97773.13;;;12.53;65.73
9423;BME280;4750;49.506;10.400;2022-09-03T04:34:43;97775.38;;;12.55;66.13
9423;BME280;4750;49.506;10.400;2022-09-03T04:37:27;97766.22;;;12.47;65.89
9423;BME280;4750;49.506;10.400;2022-09-03T04:40:11;97761.88;;;12.53;66.02
9423;BME280;4750;49.506;10.400;2022-09-03T04:42:56;97768.44;;;12.56;66.05
9423;BME280;4750;49.506;10.400;2022-09-03T04:45:42;97772.72;;;12.57;65.91
9423;BME280;4750;49.506;10.400;2022-09-03T04:48:27;97796.81;;;12.75;66.05
9423;BME280;4750;49.506;10.400;2022-09-03T04:51:14;97796.00;;;12.83;66.06
9423;BME280;4750;49.506;10.400;2022-09-03T04:53:59;97729.72;;;12.31;65.73
9423;BME280;4750;49.506;10.400;2022-09-03T04:56:44;97777.41;;;12.62;66.04
9423;BME280;4750;49.506;10.400;2022-09-03T04:59:28;97777.69;;;12.74;66.23
9423;BME280;4750;49.506;10.400;2022-09-03T05:02:12;97765.25;;;12.77;66.19
9423;BME280;4750;49.506;10.400;2022-09-03T05:04:58;97770.78;;;12.92;65.81
9423;BME280;4750;49.506;10.400;2022-09-03T05:07:42;97757.34;;;12.83;65.85
9423;BME280;4750;49.506;10.400;2022-09-03T05:10:27;97798.78;;;13.16;65.56
9423;BME280;4750;49.506;10.400;2022-09-03T05:13:11;97806.53;;;13.33;65.33
9423;BME280;4750;49.506;10.400;2022-09-03T05:16:00;97802.34;;;13.34;65.00
9423;BME280;4750;49.506;10.400;2022-09-03T05:18:45;97785.81;;;13.38;65.03
9423;BME280;4750;49.506;10.400;2022-09-03T05:21:29;97794.16;;;13.71;64.67
9423;BME280;4750;49.506;10.400;2022-09-03T05:24:13;97767.84;;;13.68;64.10
9423;BME280;4750;49.506;10.400;2022-09-03T05:26:58;97790.69;;;14.07;63.77
9423;BME280;4750;49.506;10.400;2022-09-03T05:29:43;97793.28;;;13.95;63.29
9423;BME280;4750;49.506;10.400;2022-09-03T05:32:29;97786.63;;;14.18;62.94
9423;BME280;4750;49.506;10.400;2022-09-03T05:35:14;97781.03;;;14.55;62.28
9423;BME280;4750;49.506;10.400;2022-09-03T05:37:57;97760.59;;;14.65;61.22
9423;BME280;4750;49.506;10.400;2022-09-03T05:40:43;97777.06;;;16.01;59.80
9423;BME280;4750;49.506;10.400;2022-09-03T05:43:27;97804.16;;;17.26;57.00
9423;BME280;4750;49.506;10.400;2022-09-03T05:46:13;97797.25;;;17.29;54.16
9423;BME280;4750;49.506;10.400;2022-09-03T05:49:05;97799.22;;;16.95;54.26
9423;BME280;4750;49.506;10.400;2022-09-03T05:51:50;97795.91;;;16.57;54.66
9423;BME280;4750;49.506;10.400;2022-09-03T05:54:34;97806.88;;;16.02;55.58
9423;BME280;4750;49.506;10.400;2022-09-03T05:57:18;97790.88;;;15.58;56.68
9423;BME280;4750;49.506;10.400;2022-09-03T06:00:03;97784.78;;;15.52;57.54
9423;BME280;4750;49.506;10.400;2022-09-03T06:02:56;97778.66;;;14.79;57.96
9423;BME280;4750;49.506;10.400;2022-09-03T06:05:49;97816.22;;;15.65;58.68
9423;BME280;4750;49.506;10.400;2022-09-03T06:08:34;97796.84;;;15.72;57.63
9423;BME280;4750;49.506;10.400;2022-09-03T06:11:18;97783.56;;;15.35;57.48
9423;BME280;4750;49.506;10.400;2022-09-03T06:14:04;97797.72;;;15.45;57.80
9423;BME280;4750;49.506;10.400;2022-09-03T06:16:49;97782.78;;;15.25;58.06
9423;BME280;4750;49.506;10.400;2022-09-03T06:19:35;97786.41;;;15.45;58.04
9423;BME280;4750;49.506;10.400;2022-09-03T06:22:19;97789.25;;;15.55;57.75
9423;BME280;4750;49.506;10.400;2022-09-03T06:25:03;97771.78;;;15.29;57.79
9423;BME280;4750;49.506;10.400;2022-09-03T06:27:47;97783.84;;;15.20;58.19
9423;BME280;4750;49.506;10.400;2022-09-03T06:30:32;97790.75;;;15.56;58.84
9423;BME280;4750;49.506;10.400;2022-09-03T06:33:16;97797.59;;;16.31;57.35
9423;BME280;4750;49.506;10.400;2022-09-03T06:36:04;97783.25;;;16.48;56.14
9423;BME280;4750;49.506;10.400;2022-09-03T06:38:51;97788.16;;;16.58;55.33
9423;BME280;4750;49.506;10.400;2022-09-03T06:41:35;97788.16;;;16.48;55.16
9423;BME280;4750;49.506;10.400;2022-09-03T06:44:19;97773.91;;;17.40;55.81
9423;BME280;4750;49.506;10.400;2022-09-03T06:47:03;97800.75;;;18.83;53.10
9423;BME280;4750;49.506;10.400;2022-09-03T06:49:47;97761.13;;;19.95;49.65
9423;BME280;4750;49.506;10.400;2022-09-03T06:52:30;97774.56;;;20.58;46.48
9423;BME280;4750;49.506;10.400;2022-09-03T06:55:15;97784.94;;;20.79;45.32
9423;BME280;4750;49.506;10.400;2022-09-03T06:57:58;97773.06;;;19.80;46.11
9423;BME280;4750;49.506;10.400;2022-09-03T07:00:42;97778.78;;;19.68;47.45
9423;BME280;4750;49.506;10.400;2022-09-03T07:03:27;97780.41;;;19.59;47.83
9423;BME280;4750;49.506;10.400;2022-09-03T07:06:17;97763.16;;;19.08;48.92
9423;BME280;4750;49.506;10.400;2022-09-03T07:09:02;97756.38;;;19.01;49.27
9423;BME280;4750;49.506;10.400;2022-09-03T07:11:46;97768.97;;;18.86;48.94
9423;BME280;4750;49.506;10.400;2022-09-03T07:14:30;97776.91;;;18.31;49.52
9423;BME280;4750;49.506;10.400;2022-09-03T07:17:13;97769.91;;;17.77;51.32
9423;BME280;4750;49.506;10.400;2022-09-03T07:19:58;97720.06;;;17.52;52.43
9423;BME280;4750;49.506;10.400;2022-09-03T07:22:41;97766.84;;;17.19;52.92
9423;BME280;4750;49.506;10.400;2022-09-03T07:25:25;97739.19;;;17.30;53.18
9423;BME280;4750;49.506;10.400;2022-09-03T07:28:10;97758.78;;;17.26;53.95
9423;BME280;4750;49.506;10.400;2022-09-03T07:31:01;97780.50;;;17.76;53.49
9423;BME280;4750;49.506;10.400;2022-09-03T07:33:46;97777.66;;;17.76;52.91
9423;BME280;4750;49.506;10.400;2022-09-03T07:36:35;97788.34;;;17.66;52.78
9423;BME280;4750;49.506;10.400;2022-09-03T07:39:22;97763.88;;;16.86;53.59
9423;BME280;4750;49.506;10.400;2022-09-03T07:42:06;97778.19;;;17.19;54.66
9423;BME280;4750;49.506;10.400;2022-09-03T07:44:51;97782.63;;;17.54;54.45
9423;BME280;4750;49.506;10.400;2022-09-03T07:47:35;97798.81;;;18.40;53.43
9423;BME280;4750;49.506;10.400;2022-09-03T07:50:19;97778.75;;;17.28;52.92
9423;BME280;4750;49.506;10.400;2022-09-03T07:53:03;97801.59;;;17.30;55.33
9423;BME280;4750;49.506;10.400;2022-09-03T07:55:47;97784.16;;;17.67;54.02
9423;BME280;4750;49.506;10.400;2022-09-03T07:58:33;97785.25;;;17.83;53.58
9423;BME280;4750;49.506;10.400;2022-09-03T08:01:19;97785.25;;;17.40;53.79
9423;BME280;4750;49.506;10.400;2022-09-03T08:04:05;97783.78;;;18.16;54.09
9423;BME280;4750;49.506;10.400;2022-09-03T08:06:49;97804.34;;;18.26;53.19
9423;BME280;4750;49.506;10.400;2022-09-03T08:09:38;97792.19;;;18.59;52.60
9423;BME280;4750;49.506;10.400;2022-09-03T08:12:22;97764.22;;;17.98;52.65
9423;BME280;4750;49.506;10.400;2022-09-03T08:15:07;97781.88;;;17.75;52.76
9423;BME280;4750;49.506;10.400;2022-09-03T08:17:51;97799.91;;;17.58;54.52
9423;BME280;4750;49.506;10.400;2022-09-03T08:20:36;97791.34;;;17.68;55.13
9423;BME280;4750;49.506;10.400;2022-09-03T08:23:20;97771.53;;;17.80;54.82
9423;BME280;4750;49.506;10.400;2022-09-03T08:26:05;97753.16;;;17.37;54.67
9423;BME280;4750;49.506;10.400;2022-09-03T08:28:51;97773.91;;;17.83;54.77
9423;BME280;4750;49.506;10.400;2022-09-03T08:31:36;97760.31;;;18.15;54.53
9423;BME280;4750;49.506;10.400;2022-09-03T08:34:20;97795.22;;;19.08;53.48
9423;BME280;4750;49.506;10.400;2022-09-03T08:37:05;97775.00;;;19.40;51.42
9423;BME280;4750;49.506;10.400;2022-09-03T08:39:53;97769.00;;;19.10;52.54
9423;BME280;4750;49.506;10.400;2022-09-03T08:43:13;97790.66;;;19.76;51.18
9423;BME280;4750;49.506;10.400;2022-09-03T08:46:00;97786.75;;;19.46;50.35
9423;BME280;4750;49.506;10.400;2022-09-03T08:48:46;97778.53;;;19.64;51.04
9423;BME280;4750;49.506;10.400;2022-09-03T08:51:31;97775.75;;;19.52;50.23
9423;BME280;4750;49.506;10.400;2022-09-03T08:54:17;97793.38;;;20.12;50.49
9423;BME280;4750;49.506;10.400;2022-09-03T08:57:04;97800.13;;;20.30;49.61
9423;BME280;4750;49.506;10.400;2022-09-03T08:59:52;97780.25;;;20.33;49.72
9423;BME280;4750;49.506;10.400;2022-09-03T09:02:47;97772.75;;;20.25;48.64
9423;BME280;4750;49.506;10.400;2022-09-03T09:05:48;97768.88;;;19.81;49.02
9423;BME280;4750;49.506;10.400;2022-09-03T09:08:49;97792.25;;;20.43;49.47
9423;BME280;4750;49.506;10.400;2022-09-03T09:20:48;97782.31;;;20.44;50.14
9423;BME280;4750;49.506;10.400;2022-09-03T09:23:35;97770.31;;;20.99;49.19
9423;BME280;4750;49.506;10.400;2022-09-03T09:26:21;97713.25;;;20.32;49.09
9423;BME280;4750;49.506;10.400;2022-09-03T09:29:08;97767.44;;;20.85;49.27
9423;BME280;4750;49.506;10.400;2022-09-03T09:31:55;97750.56;;;21.17;48.92
9423;BME280;4750;49.506;10.400;2022-09-03T09:34:39;97740.81;;;20.94;47.83
9423;BME280;4750;49.506;10.400;2022-09-03T09:37:27;97750.63;;;21.33;48.73
9423;BME280;4750;49.506;10.400;2022-09-03T09:40:22;97747.19;;;21.07;48.70
9423;BME280;4750;49.506;10.400;2022-09-03T09:43:16;97764.56;;;21.69;49.00
9423;BME280;4750;49.506;10.400;2022-09-03T09:46:13;97743.34;;;22.17;47.74
9423;BME280;4750;49.506;10.400;2022-09-03T09:48:57;97743.06;;;22.41;46.40
9423;BME280;4750;49.506;10.400;2022-09-03T09:51:41;97766.69;;;22.28;46.91
9423;BME280;4750;49.506;10.400;2022-09-03T09:54:25;97770.16;;;22.40;45.77
9423;BME280;4750;49.506;10.400;2022-09-03T09:57:22;97752.19;;;22.08;46.40
9423;BME280;4750;49.506;10.400;2022-09-03T10:00:09;97744.25;;;22.68;46.79
9423;BME280;4750;49.506;10.400;2022-09-03T10:02:58;97741.41;;;22.84;46.45
9423;BME280;4750;49.506;10.400;2022-09-03T10:05:59;97731.25;;;22.81;45.55
9423;BME280;4750;49.506;10.400;2022-09-03T10:08:44;97718.63;;;23.36;45.15
9423;BME280;4750;49.506;10.400;2022-09-03T10:11:28;97740.16;;;23.37;44.64
9423;BME280;4750;49.506;10.400;2022-09-03T10:14:26;97731.59;;;23.21;44.94
9423;BME280;4750;49.506;10.400;2022-09-03T10:17:28;97746.09;;;23.59;44.70
9423;BME280;4750;49.506;10.400;2022-09-03T10:23:25;97758.28;;;23.60;46.00
9423;BME280;4750;49.506;10.400;2022-09-03T10:26:16;97730.50;;;24.16;44.32
9423;BME280;4750;49.506;10.400;2022-09-03T10:29:03;97751.66;;;23.05;46.71
9423;BME280;4750;49.506;10.400;2022-09-03T10:35:31;97716.09;;;23.96;45.11
9423;BME280;4750;49.506;10.400;2022-09-03T10:38:33;97733.56;;;24.40;43.89
9423;BME280;4750;49.506;10.400;2022-09-03T10:44:33;97740.25;;;24.09;46.03
9423;BME280;4750;49.506;10.400;2022-09-03T10:57:02;97725.75;;;24.05;44.00
9423;BME280;4750;49.506;10.400;2022-09-03T11:00:00;97699.75;;;23.83;44.66
9423;BME280;4750;49.506;10.400;2022-09-03T11:03:22;97709.84;;;24.58;44.24
9423;BME280;4750;49.506;10.400;2022-09-03T11:06:19;97720.97;;;25.48;43.33
9423;BME280;4750;49.506;10.400;2022-09-03T11:09:22;97716.19;;;25.15;43.50
9423;BME280;4750;49.506;10.400;2022-09-03T11:12:18;97693.63;;;25.47;42.89
9423;BME280;4750;49.506;10.400;2022-09-03T11:15:14;97699.78;;;24.57;42.60
9423;BME280;4750;49.506;10.400;2022-09-03T11:18:15;97704.56;;;24.32;43.71
9423;BME280;4750;49.506;10.400;2022-09-03T11:21:06;97705.34;;;24.71;44.05
9423;BME280;4750;49.506;10.400;2022-09-03T11:24:03;97695.84;;;25.49;43.58
9423;BME280;4750;49.506;10.400;2022-09-03T11:27:19;97708.00;;;26.38;40.88
9423;BME280;4750;49.506;10.400;2022-09-03T11:30:08;97676.63;;;26.46;40.17
9423;BME280;4750;49.506;10.400;2022-09-03T11:32:55;97677.69;;;25.64;41.34
9423;BME280;4750;49.506;10.400;2022-09-03T11:35:42;97683.47;;;26.10;41.43
9423;BME280;4750;49.506;10.400;2022-09-03T11:38:28;97687.63;;;26.29;40.66
9423;BME280;4750;49.506;10.400;2022-09-03T11:41:23;97683.69;;;26.67;40.53
9423;BME280;4750;49.506;10.400;2022-09-03T11:44:18;97665.16;;;26.24;39.93
9423;BME280;4750;49.506;10.400;2022-09-03T11:47:14;97659.53;;;25.57;41.21
9423;BME280;4750;49.506;10.400;2022-09-03T11:50:06;97673.19;;;26.03;42.14
9423;BME280;4750;49.506;10.400;2022-09-03T11:53:37;97674.78;;;26.08;41.56
9423;BME280;4750;49.506;10.400;2022-09-03T11:56:15;97669.44;;;26.71;41.13
9423;BME280;4750;49.506;10.400;2022-09-03T12:02:03;97673.59;;;27.19;39.64
9423;BME280;4750;49.506;10.400;2022-09-03T12:11:18;97653.50;;;26.68;40.26
9423;BME280;4750;49.506;10.400;2022-09-03T12:14:21;97651.47;;;26.99;39.33
9423;BME280;4750;49.506;10.400;2022-09-03T12:20:13;97641.38;;;26.72;40.79
9423;BME280;4750;49.506;10.400;2022-09-03T12:22:57;97638.28;;;26.39;41.54
9423;BME280;4750;49.506;10.400;2022-09-03T12:25:43;97652.56;;;26.11;41.79
9423;BME280;4750;49.506;10.400;2022-09-03T12:28:30;97650.69;;;26.20;41.42
9423;BME280;4750;49.506;10.400;2022-09-03T12:31:25;97656.06;;;26.07;41.48
9423;BME280;4750;49.506;10.400;2022-09-03T12:34:14;97651.56;;;26.51;41.91
9423;BME280;4750;49.506;10.400;2022-09-03T12:36:59;97639.31;;;26.74;41.11
9423;BME280;4750;49.506;10.400;2022-09-03T12:39:50;97646.03;;;27.11;40.74
9423;BME280;4750;49.506;10.400;2022-09-03T12:42:35;97623.56;;;26.77;40.37
9423;BME280;4750;49.506;10.400;2022-09-03T12:45:24;97658.13;;;27.60;39.38
9423;BME280;4750;49.506;10.400;2022-09-03T12:48:16;97650.44;;;27.71;39.72
9423;BME280;4750;49.506;10.400;2022-09-03T12:51:01;97638.47;;;27.83;39.26
9423;BME280;4750;49.506;10.400;2022-09-03T12:53:46;97629.00;;;28.11;38.26
9423;BME280;4750;49.506;10.400;2022-09-03T12:56:32;97633.00;;;29.01;37.53
9423;BME280;4750;49.506;10.400;2022-09-03T12:59:18;97651.94;;;28.37;36.92
9423;BME280;4750;49.506;10.400;2022-09-03T13:02:14;97613.06;;;26.88;39.69
9423;BME280;4750;49.506;10.400;2022-09-03T13:05:01;97636.94;;;26.42;40.02
9423;BME280;4750;49.506;10.400;2022-09-03T13:07:49;97664.28;;;25.95;41.49
9423;BME280;4750;49.506;10.400;2022-09-03T13:10:38;97675.47;;;25.63;42.87
9423;BME280;4750;49.506;10.400;2022-09-03T13:13:28;97659.97;;;25.50;43.62
9423;BME280;4750;49.506;10.400;2022-09-03T13:19:30;97629.03;;;25.70;43.28
9423;BME280;4750;49.506;10.400;2022-09-03T13:22:42;97653.69;;;25.77;43.14
9423;BME280;4750;49.506;10.400;2022-09-03T13:31:44;97643.81;;;24.76;44.37
9423;BME280;4750;49.506;10.400;2022-09-03T13:34:36;97656.16;;;24.81;44.93
9423;BME280;4750;49.506;10.400;2022-09-03T13:37:33;97645.88;;;24.94;45.01
9423;BME280;4750;49.506;10.400;2022-09-03T13:40:24;97657.47;;;25.18;45.08
9423;BME280;4750;49.506;10.400;2022-09-03T13:46:12;97652.88;;;25.10;45.00
9423;BME280;4750;49.506;10.400;2022-09-03T13:49:14;97640.38;;;24.80;44.88
9423;BME280;4750;49.506;10.400;2022-09-03T13:55:46;97644.97;;;24.49;45.47
9423;BME280;4750;49.506;10.400;2022-09-03T13:58:40;97664.22;;;24.64;46.13
9423;BME280;4750;49.506;10.400;2022-09-03T14:01:59;97637.59;;;24.44;46.43
9423;BME280;4750;49.506;10.400;2022-09-03T14:08:12;97623.13;;;24.01;47.21
9423;BME280;4750;49.506;10.400;2022-09-03T14:17:14;97643.31;;;23.67;49.42
9423;BME280;4750;49.506;10.400;2022-09-03T14:20:02;97659.75;;;23.15;52.69
9423;BME280;4750;49.506;10.400;2022-09-03T14:22:57;97627.00;;;22.52;55.18
9423;BME280;4750;49.506;10.400;2022-09-03T14:25:52;97655.78;;;22.24;57.22
9423;BME280;4750;49.506;10.400;2022-09-03T14:28:39;97661.34;;;21.60;60.46
9423;BME280;4750;49.506;10.400;2022-09-03T14:31:38;97664.88;;;20.87;62.33
9423;BME280;4750;49.506;10.400;2022-09-03T14:50:01;97651.03;;;20.68;73.73
9423;BME280;4750;49.506;10.400;2022-09-03T14:56:03;97634.91;;;21.16;73.99
9423;BME280;4750;49.506;10.400;2022-09-03T15:11:21;97683.69;;;21.50;69.90
9423;BME280;4750;49.506;10.400;2022-09-03T15:14:13;97692.75;;;21.60;69.50
9423;BME280;4750;49.506;10.400;2022-09-03T15:23:01;97658.69;;;20.37;71.03
9423;BME280;4750;49.506;10.400;2022-09-03T15:29:06;97671.31;;;19.81;73.41
9423;BME280;4750;49.506;10.400;2022-09-03T15:31:57;97702.63;;;19.81;73.76
9423;BME280;4750;49.506;10.400;2022-09-03T15:37:52;97683.88;;;19.64;75.39
9423;BME280;4750;49.506;10.400;2022-09-03T15:43:30;97707.28;;;19.50;74.43
9423;BME280;4750;49.506;10.400;2022-09-03T15:46:33;97654.16;;;19.29;73.98
9423;BME280;4750;49.506;10.400;2022-09-03T15:49:28;97703.91;;;19.66;74.03
9423;BME280;4750;49.506;10.400;2022-09-03T15:52:31;97715.25;;;19.77;73.99
9423;BME280;4750;49.506;10.400;2022-09-03T15:58:30;97689.75;;;19.42;73.60
9423;BME280;4750;49.506;10.400;2022-09-03T16:07:48;97701.50;;;18.87;74.75
9423;BME280;4750;49.506;10.400;2022-09-03T16:11:04;97682.91;;;18.74;74.89
9423;BME280;4750;49.506;10.400;2022-09-03T16:13:59;97705.81;;;18.64;74.70
9423;BME280;4750;49.506;10.400;2022-09-03T16:16:58;97702.22;;;18.64;74.87
9423;BME280;4750;49.506;10.400;2022-09-03T16:20:02;97722.84;;;18.76;74.86
9423;BME280;4750;49.506;10.400;2022-09-03T16:22:56;97697.50;;;18.56;74.64
9423;BME280;4750;49.506;10.400;2022-09-03T16:26:20;97726.91;;;18.61;74.39
9423;BME280;4750;49.506;10.400;2022-09-03T16:29:05;97724.19;;;18.51;74.86
9423;BME280;4750;49.506;10.400;2022-09-03T16:40:58;97734.81;;;18.51;74.89
9423;BME280;4750;49.506;10.400;2022-09-03T16:44:03;97755.72;;;18.55;74.71
9423;BME280;4750;49.506;10.400;2022-09-03T16:47:05;97762.50;;;18.50;74.61
9423;BME280;4750;49.506;10.400;2022-09-03T16:50:04;97758.78;;;18.48;74.79
9423;BME280;4750;49.506;10.400;2022-09-03T16:59:05;97769.66;;;18.51;74.69
9423;BME280;4750;49.506;10.400;2022-09-03T17:10:48;97784.53;;;18.62;74.14
9423;BME280;4750;49.506;10.400;2022-09-03T17:26:17;97787.13;;;18.12;75.46
9423;BME280;4750;49.506;10.400;2022-09-03T17:29:27;97780.78;;;18.02;75.84
9423;BME280;4750;49.506;10.400;2022-09-03T17:32:46;97787.66;;;17.99;76.17
9423;BME280;4750;49.506;10.400;2022-09-03T17:48:49;97774.09;;;17.76;75.95
9423;BME280;4750;49.506;10.400;2022-09-03T17:51:41;97747.63;;;17.61;76.21
9423;BME280;4750;49.506;10.400;2022-09-03T17:54:41;97765.88;;;17.58;76.49
9423;BME280;4750;49.506;10.400;2022-09-03T17:57:31;97758.44;;;17.53;77.11
9423;BME280;4750;49.506;10.400;2022-09-03T18:00:23;97780.78;;;17.59;77.38
9423;BME280;4750;49.506;10.400;2022-09-03T18:03:28;97777.34;;;17.38;77.93
9423;BME280;4750;49.506;10.400;2022-09-03T18:06:31;97771.50;;;17.15;78.03
9423;BME280;4750;49.506;10.400;2022-09-03T18:09:36;97808.03;;;17.20;78.38
9423;BME280;4750;49.506;10.400;2022-09-03T18:12:37;97795.31;;;17.00;78.80
9423;BME280;4750;49.506;10.400;2022-09-03T18:18:31;97826.88;;;16.75;80.53
9423;BME280;4750;49.506;10.400;2022-09-03T18:21:20;97807.69;;;16.53;81.11
9423;BME280;4750;49.506;10.400;2022-09-03T18:24:51;97824.06;;;16.65;82.11
9423;BME280;4750;49.506;10.400;2022-09-03T18:27:58;97839.69;;;16.76;83.00
9423;BME280;4750;49.506;10.400;2022-09-03T18:31:02;97834.38;;;16.60;83.46
9423;BME280;4750;49.506;10.400;2022-09-03T18:34:06;97854.59;;;16.76;84.07
9423;BME280;4750;49.506;10.400;2022-09-03T18:37:09;97825.56;;;16.66;84.28
9423;BME280;4750;49.506;10.400;2022-09-03T18:40:27;97834.81;;;16.57;84.49
9423;BME280;4750;49.506;10.400;2022-09-03T18:46:53;97869.41;;;16.65;85.78